Terminal Aerodrome Forecast
Issued by NWS

Home | Current Version | Previous Version | Text Only | Print | Product List | Glossary Off
Versions: 1 2 3 4 5 6 7 8 9 10 11 12 13 14 15

832
FTUS42 KMHX 240952 AAA
TAFISO
TAF AMD
KISO 240952Z 2410/2506 21013G20KT P6SM SCT015
      TEMPO 2410/2412 BKN025
     FM241300 23013G20KT P6SM SCT015 BKN040
     FM241800 24010G18KT P6SM VCSH BKN040
     FM250000 21005KT 4SM SHRA VCTS SCT025CB OVC060
      AMD LTD TO CLD VIS AND WIND=

USA.gov is the U.S. government's official web portal to all federal, state and local government web resources and services.